Time;durP1;ratioP1;P1;durP2;ratioP2;P2;SDS_P1;SDS_P2;PMS_P1;PMS_P2;Temp;Humidity;BMP_temperature;BMP_pressure;BME280_temperature;BME280_humidity;BME280_pressure;Samples;Min_cycle;Max_cycle;Signal;HPM_P1;HPM_P2
2022/05/17 00:01:12;;;;;;;28.08;23.52;;;;;;;29.95;73.90;100813.47;5052876;28;66076;-34
2022/05/17 00:03:44;;;;;;;29.30;26.17;;;;;;;30.01;73.49;100828.00;5053884;28;69354;-33
2022/05/17 00:06:16;;;;;;;34.42;24.92;;;;;;;30.06;73.09;100826.31;5040216;28;65440;-34
2022/05/17 00:08:47;;;;;;;28.70;24.50;;;;;;;29.88;72.37;100787.50;5058938;28;69328;-33
2022/05/17 00:11:18;;;;;;;25.45;21.80;;;;;;;30.19;71.96;100829.97;5059214;28;65918;-33
2022/05/17 00:13:49;;;;;;;24.13;21.57;;;;;;;30.22;72.70;100830.38;5058829;28;69895;-33
2022/05/17 00:16:21;;;;;;;29.08;22.27;;;;;;;30.13;72.31;100807.31;5058826;28;65673;-34
2022/05/17 00:18:52;;;;;;;26.40;23.08;;;;;;;30.22;71.95;100824.97;5053884;28;69912;-34
2022/05/17 00:21:23;;;;;;;30.67;23.73;;;;;;;30.34;71.57;100844.09;5060153;28;66202;-32
2022/05/17 00:23:54;;;;;;;29.83;23.52;;;;;;;30.30;71.52;100837.44;5058730;28;69087;-34
2022/05/17 00:26:25;;;;;;;28.13;24.17;;;;;;;30.41;71.40;100849.44;5059025;28;66327;-33
2022/05/17 00:28:56;;;;;;;28.58;23.50;;;;;;;30.39;71.50;100843.41;5060828;28;70095;-34
2022/05/17 00:31:26;;;;;;;33.35;24.35;;;;;;;30.48;71.73;100850.25;5053194;28;66370;-34
2022/05/17 00:33:57;;;;;;;26.65;23.95;;;;;;;30.50;71.03;100853.53;5059993;28;69627;-35
2022/05/17 00:36:28;;;;;;;25.85;23.02;;;;;;;30.54;70.73;100846.66;5059551;28;65236;-33
2022/05/17 00:39:00;;;;;;;36.05;23.98;;;;;;;30.59;70.77;100845.97;5051400;28;70338;-34
2022/05/17 00:41:31;;;;;;;27.52;23.95;;;;;;;30.61;71.20;100855.53;5057630;28;66199;-35
2022/05/17 00:47:02;;;;;;;23.63;21.42;;;;;;;30.80;69.61;100850.25;5054926;28;66449;-32
2022/05/17 00:49:36;;;;;;;23.70;21.15;;;;;;;30.93;67.73;100855.56;5054334;28;70294;-33
2022/05/17 00:52:29;;;;;;;21.13;19.27;;;;;;;31.03;67.51;100853.16;5054340;28;66435;-33
2022/05/17 00:55:17;;;;;;;20.75;18.67;;;;;;;31.05;67.46;100844.81;5052998;28;70137;-33
2022/05/17 00:58:00;;;;;;;19.65;17.83;;;;;;;31.15;66.85;100851.38;5056127;28;66338;-33
2022/05/17 01:00:33;;;;;;;;;;;;;;;30.88;67.20;100849.97;5058252;28;70798;-33
2022/05/17 01:03:07;;;;;;;19.55;17.88;;;;;;;31.23;65.98;100846.72;5056381;28;64622;-33
2022/05/17 01:05:45;;;;;;;21.15;19.08;;;;;;;31.34;65.14;100854.09;5056007;28;69562;-32
2022/05/17 01:08:18;;;;;;;18.90;17.45;;;;;;;31.39;64.89;100867.84;5033702;28;65780;-33
2022/05/17 01:10:48;;;;;;;20.23;18.52;;;;;;;31.32;64.75;100839.97;5054861;28;70374;-32
2022/05/17 01:16:08;;;;;;;20.77;18.75;;;;;;;31.51;64.11;100871.50;5058463;28;69811;-32
2022/05/17 01:18:42;;;;;;;20.13;18.27;;;;;;;31.46;63.90;100846.94;5057914;28;66369;-32
2022/05/17 01:21:13;;;;;;;19.80;17.92;;;;;;;31.60;63.66;100870.13;5058979;28;70194;-32
2022/05/17 01:23:44;;;;;;;18.43;16.87;;;;;;;31.61;63.21;100871.78;5057382;28;66459;-32
2022/05/17 01:26:21;;;;;;;19.08;17.10;;;;;;;31.32;63.67;100819.13;5058579;28;69919;-32
2022/05/17 01:28:52;;;;;;;19.15;16.77;;;;;;;31.61;63.38;100860.13;5055035;28;66115;-33
2022/05/17 01:31:24;;;;;;;18.10;16.65;;;;;;;31.75;62.69;100871.63;5056142;28;70226;-33
2022/05/17 01:33:54;;;;;;;19.15;17.15;;;;;;;31.75;63.34;100867.03;5059363;28;66500;-34
2022/05/17 01:36:25;;;;;;;19.75;17.90;;;;;;;31.82;63.48;100877.84;5057276;28;69677;-34
2022/05/17 01:38:56;;;;;;;20.27;17.55;;;;;;;31.87;64.47;100872.53;5057162;28;66566;-32
2022/05/17 01:41:26;;;;;;;19.58;17.70;;;;;;;31.89;64.74;100873.13;5057682;28;69307;-33
2022/05/17 01:43:57;;;;;;;18.23;16.85;;;;;;;31.82;64.44;100864.28;5058631;28;65468;-33
2022/05/17 01:46:28;;;;;;;18.52;17.02;;;;;;;31.86;64.14;100868.16;5058545;28;70661;-33
2022/05/17 01:48:59;;;;;;;17.83;16.33;;;;;;;31.99;63.52;100889.75;5052856;28;66495;-33
2022/05/17 01:51:29;;;;;;;17.05;15.68;;;;;;;31.95;63.49;100883.09;5058342;28;70446;-32
2022/05/17 01:54:00;;;;;;;17.45;16.05;;;;;;;32.03;63.15;100888.22;5056414;28;67314;-32
2022/05/17 01:56:33;;;;;;;17.77;16.10;;;;;;;32.04;63.25;100881.75;5054908;28;69528;-32
2022/05/17 01:59:03;;;;;;;16.60;15.15;;;;;;;32.09;62.80;100888.38;5055262;28;66167;-32
2022/05/17 02:01:35;;;;;;;16.67;15.35;;;;;;;32.12;62.92;100890.63;5055424;28;69154;-32
2022/05/17 02:04:06;;;;;;;18.70;16.83;;;;;;;32.13;62.83;100889.59;5057106;28;67444;-32
2022/05/17 02:06:36;;;;;;;17.45;15.82;;;;;;;32.12;62.49;100893.34;5051919;28;70363;-32
2022/05/17 02:09:07;;;;;;;17.58;16.08;;;;;;;32.19;62.47;100891.38;5054261;28;65705;-32
2022/05/17 02:11:38;;;;;;;18.85;16.98;;;;;;;32.20;62.28;100890.31;5055838;28;70418;-32
2022/05/17 02:14:09;;;;;;;18.05;16.35;;;;;;;32.22;62.51;100888.19;5056149;28;66380;-33
2022/05/17 02:16:40;;;;;;;16.75;15.32;;;;;;;32.24;62.25;100883.38;5056007;28;69925;-33
2022/05/17 02:19:11;;;;;;;17.85;16.27;;;;;;;32.24;62.41;100886.09;5055961;28;66328;-33
2022/05/17 02:21:42;;;;;;;17.23;15.65;;;;;;;32.25;62.28;100871.44;5056283;28;70557;-33
2022/05/17 02:24:12;;;;;;;16.75;15.43;;;;;;;32.23;61.67;100874.41;5048071;28;65854;-33
2022/05/17 02:26:43;;;;;;;16.70;15.02;;;;;;;32.34;61.59;100885.53;5057719;28;70318;-32
2022/05/17 02:29:14;;;;;;;15.93;14.65;;;;;;;32.31;61.76;100875.97;5038444;28;66109;-33
2022/05/17 02:31:45;;;;;;;16.20;14.88;;;;;;;32.35;61.90;100885.31;5038226;28;70369;-32
2022/05/17 02:34:16;;;;;;;16.80;15.27;;;;;;;32.37;61.20;100887.78;5038591;28;65897;-33
2022/05/17 02:36:49;;;;;;;16.30;15.00;;;;;;;32.40;61.55;100890.88;5040946;28;70168;-32
2022/05/17 02:39:19;;;;;;;15.77;14.30;;;;;;;32.43;61.16;100884.13;5038893;28;65782;-34
2022/05/17 02:41:50;;;;;;;16.17;14.65;;;;;;;32.45;61.06;100888.28;5036910;28;69207;-32
2022/05/17 02:44:21;;;;;;;16.77;15.25;;;;;;;32.43;60.81;100885.00;5039684;28;66226;-32
2022/05/17 02:46:51;;;;;;;15.32;13.98;;;;;;;32.43;60.94;100886.84;5038531;28;70162;-33
2022/05/17 02:49:22;;;;;;;14.35;13.23;;;;;;;32.52;60.81;100901.00;5037101;28;66214;-32
2022/05/17 02:51:54;;;;;;;15.82;14.48;;;;;;;32.21;60.49;100846.66;5046684;28;69631;-32
2022/05/17 02:54:25;;;;;;;22.48;18.63;;;;;;;32.55;60.88;100909.50;5038282;28;65770;-31
2022/05/17 02:56:57;;;;;;;17.60;15.75;;;;;;;32.58;60.77;100910.91;5037435;28;69732;-33
2022/05/17 02:59:27;;;;;;;17.92;16.23;;;;;;;32.60;60.67;100911.53;5043766;28;66388;-33
2022/05/17 03:01:59;;;;;;;21.33;16.60;;;;;;;32.61;60.55;100908.56;5057560;28;68791;-33
2022/05/17 03:04:30;;;;;;;18.23;16.17;;;;;;;32.61;60.62;100903.13;5039143;28;66579;-33
2022/05/17 03:07:00;;;;;;;24.80;16.60;;;;;;;32.58;60.59;100889.19;5038659;28;70272;-32
2022/05/17 03:09:31;;;;;;;19.13;16.58;;;;;;;32.61;60.45;100896.88;5039732;28;66192;-31
2022/05/17 03:12:02;;;;;;;18.52;15.82;;;;;;;32.63;60.07;100894.75;5052534;28;70024;-33
2022/05/17 03:14:33;;;;;;;19.88;16.33;;;;;;;32.62;60.15;100893.09;5044396;28;67950;-32
2022/05/17 03:17:15;;;;;;;19.85;16.10;;;;;;;32.52;60.06;100876.53;5039507;28;69952;-31
2022/05/17 03:19:45;;;;;;;20.45;14.95;;;;;;;32.56;60.09;100888.59;5048339;28;66601;-32
2022/05/17 03:22:16;;;;;;;17.83;14.95;;;;;;;32.66;60.26;100891.56;5061049;28;70927;-32
2022/05/17 03:24:47;;;;;;;17.70;16.00;;;;;;;32.64;60.10;100891.78;5059404;28;67567;-32
2022/05/17 03:27:37;;;;;;;21.10;15.57;;;;;;;32.65;59.84;100884.47;5062489;28;70472;-32
2022/05/17 03:30:08;;;;;;;17.33;15.52;;;;;;;32.60;59.98;100870.78;5041265;28;66610;-33
2022/05/17 03:32:39;;;;;;;20.58;15.27;;;;;;;32.63;59.96;100881.19;5042466;28;68731;-33
2022/05/17 03:35:11;;;;;;;22.23;16.23;;;;;;;32.65;59.84;100876.31;5056244;28;65884;-32
2022/05/17 03:37:41;;;;;;;19.50;15.88;;;;;;;32.67;60.06;100874.22;5059420;28;69879;-33
2022/05/17 03:40:13;;;;;;;16.13;14.50;;;;;;;32.13;59.70;100787.28;5061458;28;66099;-33
2022/05/17 03:42:43;;;;;;;14.80;13.40;;;;;;;32.65;59.73;100870.88;5061712;28;70001;-34
2022/05/17 03:45:14;;;;;;;16.08;14.30;;;;;;;32.72;59.70;100871.63;5053226;28;66622;-32
2022/05/17 03:47:45;;;;;;;19.97;14.73;;;;;;;32.74;59.93;100876.84;5060253;28;69205;-32
2022/05/17 03:50:17;;;;;;;15.63;13.95;;;;;;;32.67;59.65;100847.06;5056865;28;66375;-33
2022/05/17 03:52:47;;;;;;;15.10;13.90;;;;;;;32.75;59.65;100863.00;5042344;28;69755;-33
2022/05/17 03:55:18;;;;;;;15.02;13.60;;;;;;;32.77;59.52;100855.47;5042441;28;65780;-33
2022/05/17 03:57:50;;;;;;;14.90;13.02;;;;;;;32.76;59.58;100851.06;5038839;28;69644;-33
2022/05/17 04:00:21;;;;;;;15.85;12.85;;;;;;;32.79;59.47;100856.06;5060452;28;65722;-32
2022/05/17 04:02:52;;;;;;;14.32;12.52;;;;;;;32.82;59.09;100844.72;5060876;28;70868;-33
2022/05/17 04:05:22;;;;;;;13.15;12.07;;;;;;;32.84;58.96;100849.91;5055842;28;65696;-33
2022/05/17 04:07:54;;;;;;;13.43;12.10;;;;;;;32.85;58.90;100857.84;5054346;28;69302;-33
2022/05/17 04:10:25;;;;;;;13.33;11.67;;;;;;;32.87;59.01;100847.53;5059705;28;66165;-32
2022/05/17 04:12:55;;;;;;;13.07;11.77;;;;;;;32.89;58.80;100840.00;5060411;28;70226;-32
2022/05/17 04:15:26;;;;;;;11.88;10.98;;;;;;;32.88;58.64;100824.75;5061705;28;65538;-32
2022/05/17 04:17:57;;;;;;;12.50;11.40;;;;;;;32.94;58.47;100825.72;5054839;28;70138;-32
2022/05/17 04:20:28;;;;;;;12.52;10.77;;;;;;;32.96;58.50;100817.31;5040767;28;66889;-32
2022/05/17 04:22:59;;;;;;;12.10;10.93;;;;;;;32.96;58.58;100817.31;5040773;28;70006;-32
2022/05/17 04:25:35;;;;;;;12.25;11.15;;;;;;;32.94;58.36;100815.66;5041109;28;66246;-31
2022/05/17 04:28:06;;;;;;;11.37;10.37;;;;;;;32.96;58.25;100818.16;5041075;28;72031;-31
2022/05/17 04:30:41;;;;;;;11.57;10.43;;;;;;;32.96;58.22;100820.03;5040075;28;65371;-32
2022/05/17 04:33:13;;;;;;;10.50;9.80;;;;;;;32.83;58.45;100797.47;5037696;28;69481;-32
2022/05/17 04:35:45;;;;;;;19.25;10.45;;;;;;;32.98;58.49;100820.63;5047215;28;66062;-33
2022/05/17 04:38:17;;;;;;;10.55;9.90;;;;;;;32.82;58.25;100800.41;5048159;28;70345;-34
2022/05/17 04:40:48;;;;;;;11.48;10.40;;;;;;;32.96;58.15;100812.72;5039296;28;65877;-32
2022/05/17 04:43:19;;;;;;;11.20;10.32;;;;;;;32.98;58.12;100807.84;5058595;28;69930;-33
2022/05/17 04:45:51;;;;;;;10.30;9.50;;;;;;;32.98;58.09;100801.59;5051806;28;66322;-33
2022/05/17 04:48:24;;;;;;;12.30;10.05;;;;;;;32.83;58.10;100780.34;5040281;28;70135;-31
2022/05/17 04:50:55;;;;;;;10.45;9.68;;;;;;;32.99;57.95;100811.41;5045386;28;66736;-33
2022/05/17 04:53:28;;;;;;;9.80;9.07;;;;;;;32.99;57.96;100814.13;5039765;28;70056;-32
2022/05/17 04:55:59;;;;;;;9.55;8.82;;;;;;;32.99;58.04;100817.69;5041210;28;66572;-33
2022/05/17 04:58:30;;;;;;;10.03;9.10;;;;;;;32.98;58.01;100809.75;5041018;28;70469;-33
2022/05/17 05:01:02;;;;;;;9.27;8.35;;;;;;;33.01;57.88;100809.31;5040541;28;66543;-33
2022/05/17 05:03:33;;;;;;;9.45;8.75;;;;;;;32.98;58.16;100799.72;5041297;28;69868;-32
2022/05/17 05:06:03;;;;;;;9.37;8.73;;;;;;;32.98;57.90;100798.88;5039681;28;65145;-32
2022/05/17 05:08:34;;;;;;;9.88;8.20;;;;;;;33.01;58.00;100777.53;5040973;28;69564;-32
2022/05/17 05:11:05;;;;;;;8.98;8.35;;;;;;;33.02;57.92;100776.47;5041182;28;66364;-33
2022/05/17 05:13:36;;;;;;;8.15;7.65;;;;;;;33.01;57.70;100772.09;5040571;28;70048;-32
2022/05/17 05:16:10;;;;;;;9.80;8.23;;;;;;;32.65;57.32;100705.22;5040608;28;67024;-32
2022/05/17 05:18:41;;;;;;;8.75;7.93;;;;;;;32.91;57.76;100740.06;5042243;28;69905;-31
2022/05/17 05:21:14;;;;;;;8.38;7.85;;;;;;;32.94;57.79;100750.44;5039835;28;65431;-33
2022/05/17 05:23:45;;;;;;;8.40;7.80;;;;;;;33.05;57.84;100769.75;5039108;28;70097;-33
2022/05/17 05:26:16;;;;;;;10.40;8.02;;;;;;;33.00;57.83;100758.75;5041369;28;66377;-33
2022/05/17 05:28:46;;;;;;;8.20;7.60;;;;;;;33.02;57.94;100760.19;5038311;28;69864;-33
2022/05/17 05:31:17;;;;;;;7.88;7.22;;;;;;;33.04;57.67;100759.91;5058036;28;67824;-33
2022/05/17 05:33:48;;;;;;;8.18;7.45;;;;;;;33.04;57.68;100743.63;5058499;28;70448;-32
2022/05/17 05:36:19;;;;;;;8.50;7.20;;;;;;;33.03;57.82;100741.97;5056937;28;66357;-32
2022/05/17 05:38:51;;;;;;;7.63;7.13;;;;;;;33.04;57.56;100739.03;5058019;28;70049;-32
2022/05/17 05:41:22;;;;;;;7.72;7.22;;;;;;;33.03;57.76;100731.91;5058949;28;65693;-32
2022/05/17 05:43:52;;;;;;;7.25;6.65;;;;;;;33.03;57.78;100739.25;5037336;28;70572;-32
2022/05/17 05:46:23;;;;;;;7.60;7.03;;;;;;;33.03;57.58;100736.53;5051704;28;65209;-32
2022/05/17 05:48:53;;;;;;;7.22;6.63;;;;;;;33.07;57.55;100732.25;5040144;28;69589;-32
2022/05/17 05:51:24;;;;;;;6.80;6.40;;;;;;;33.05;57.49;100729.81;5044437;28;65436;-32
2022/05/17 05:53:55;;;;;;;6.90;6.40;;;;;;;32.94;57.57;100706.97;5039804;28;70127;-32
2022/05/17 05:56:26;;;;;;;7.18;6.68;;;;;;;33.07;57.84;100721.38;5046190;28;66721;-32
2022/05/17 05:58:56;;;;;;;7.47;6.70;;;;;;;33.08;57.51;100723.06;5059124;28;70514;-32
2022/05/17 06:01:27;;;;;;;7.05;6.45;;;;;;;33.06;57.58;100720.56;5059670;28;66667;-31
2022/05/17 06:04:01;;;;;;;6.82;6.40;;;;;;;33.05;57.64;100704.53;5058825;28;69405;-31
2022/05/17 06:06:32;;;;;;;6.63;6.15;;;;;;;33.09;57.46;100708.41;5059032;28;65610;-32
2022/05/17 06:09:03;;;;;;;7.18;6.57;;;;;;;33.07;57.49;100705.94;5057962;28;69997;-33
2022/05/17 06:11:34;;;;;;;6.47;5.97;;;;;;;33.04;57.69;100687.41;5057370;28;65972;-32
2022/05/17 06:14:05;;;;;;;6.35;5.95;;;;;;;33.08;57.56;100690.44;5058463;28;70109;-31
2022/05/17 06:16:35;;;;;;;6.32;5.82;;;;;;;33.08;57.44;100679.59;5058970;28;66320;-32
2022/05/17 06:19:06;;;;;;;6.75;6.25;;;;;;;33.10;57.61;100682.91;5033156;28;69734;-33
2022/05/17 06:21:37;;;;;;;6.53;6.03;;;;;;;33.11;57.54;100679.09;5046301;28;65765;-33
2022/05/17 06:24:08;;;;;;;6.47;5.97;;;;;;;33.09;57.41;100687.47;5059484;28;69488;-33
2022/05/17 06:26:39;;;;;;;6.63;6.03;;;;;;;33.08;57.56;100677.69;5058093;28;66541;-32
2022/05/17 06:29:10;;;;;;;5.93;5.53;;;;;;;33.11;57.55;100674.47;5038879;28;69380;-32
2022/05/17 06:31:41;;;;;;;6.63;5.95;;;;;;;33.08;57.38;100668.72;5052605;28;65195;-33
2022/05/17 06:34:13;;;;;;;6.13;5.80;;;;;;;32.96;57.52;100643.41;5040182;28;70161;-31
2022/05/17 06:36:44;;;;;;;7.18;5.65;;;;;;;33.13;57.52;100671.53;5040398;28;65706;-32
2022/05/17 06:39:21;;;;;;;6.45;5.85;;;;;;;33.08;57.53;100646.97;5036852;28;69972;-31
2022/05/17 06:41:53;;;;;;;6.32;5.78;;;;;;;33.17;57.75;100659.09;5042696;28;66565;-33
2022/05/17 06:44:24;;;;;;;6.90;6.20;;;;;;;33.18;57.61;100657.22;5056376;28;69944;-33
2022/05/17 06:46:56;;;;;;;5.90;5.47;;;;;;;33.19;57.35;100659.69;5057812;28;66534;-31
2022/05/17 06:49:27;;;;;;;6.13;5.72;;;;;;;33.20;57.43;100660.50;5058932;28;69867;-32
2022/05/17 06:52:02;;;;;;;5.63;5.22;;;;;;;33.17;57.54;100645.50;5041743;28;66365;-33
2022/05/17 06:54:33;;;;;;;6.03;5.55;;;;;;;33.26;57.54;100648.66;5038104;28;69861;-32
2022/05/17 06:57:07;;;;;;;5.78;5.40;;;;;;;33.28;57.32;100635.66;5043371;28;66123;-33
2022/05/17 06:59:39;;;;;;;6.20;5.80;;;;;;;33.27;57.57;100618.53;5041121;28;70282;-32
2022/05/17 07:02:11;;;;;;;5.75;5.35;;;;;;;33.31;57.40;100622.41;5042311;28;65490;-33
2022/05/17 07:04:42;;;;;;;5.60;5.13;;;;;;;33.34;57.44;100612.94;5042326;28;70432;-33
2022/05/17 07:07:13;;;;;;;5.25;4.95;;;;;;;33.40;57.37;100613.88;5042298;28;65414;-33
2022/05/17 07:13:07;;;;;;;5.25;4.95;;;;;;;33.45;57.07;100600.38;5043209;28;69328;-32
2022/05/17 07:15:23;;;;;;;7.22;4.68;;;;;;;33.49;57.07;100571.59;5058695;28;70612;-32
2022/05/17 07:17:53;;;;;;;4.88;4.40;;;;;;;33.24;57.14;100532.03;5054523;28;66314;-33
2022/05/17 07:20:24;;;;;;;4.65;4.35;;;;;;;33.50;57.17;100579.53;5042478;28;70382;-32
2022/05/17 07:22:54;;;;;;;4.13;3.83;;;;;;;33.56;56.70;100578.56;5042327;28;66316;-32
2022/05/17 07:25:25;;;;;;;4.80;4.50;;;;;;;33.57;57.33;100576.66;5041836;28;70598;-31
2022/05/17 07:27:56;;;;;;;5.10;4.70;;;;;;;33.57;56.88;100587.53;5046938;28;66088;-31
2022/05/17 07:30:27;;;;;;;5.40;5.00;;;;;;;33.57;57.16;100582.97;5059385;28;68881;-32
2022/05/17 07:32:58;;;;;;;4.43;4.13;;;;;;;33.54;56.87;100583.44;5042157;28;65487;-31
2022/05/17 07:35:29;;;;;;;10.13;4.10;;;;;;;33.60;56.48;100589.81;5060709;28;69392;-31
2022/05/17 07:38:10;;;;;;;5.37;4.13;;;;;;;33.59;56.71;100593.56;5060899;28;65864;-32
2022/05/17 07:40:53;;;;;;;5.43;4.30;;;;;;;33.62;56.55;100593.06;5047882;28;69600;-32
2022/05/17 07:43:24;;;;;;;4.75;4.35;;;;;;;33.61;56.65;100596.06;5061688;28;65967;-32
2022/05/17 07:45:55;;;;;;;4.10;3.80;;;;;;;33.64;56.71;100603.72;5061677;28;69203;-32
2022/05/17 07:48:26;;;;;;;5.90;3.83;;;;;;;33.64;56.91;100596.38;5060677;28;65067;-32
2022/05/17 07:50:56;;;;;;;4.60;4.30;;;;;;;33.43;56.71;100565.25;5050413;28;69137;-32
2022/05/17 07:53:27;;;;;;;4.38;4.05;;;;;;;33.66;56.65;100582.56;5059490;28;66417;-32
2022/05/17 07:55:59;;;;;;;4.15;3.80;;;;;;;33.62;56.35;100582.19;5061395;28;71414;-32
2022/05/17 07:58:30;;;;;;;3.67;3.47;;;;;;;33.64;56.89;100574.63;5059247;28;66626;-32
2022/05/17 08:01:09;;;;;;;4.32;4.05;;;;;;;33.24;56.22;100504.88;5037534;28;69723;-33
2022/05/17 08:03:40;;;;;;;4.60;3.83;;;;;;;33.66;56.60;100572.50;5051546;28;65815;-32
2022/05/17 08:06:11;;;;;;;4.40;4.00;;;;;;;33.65;56.77;100570.81;5042000;28;70488;-33
2022/05/17 08:08:41;;;;;;;4.28;3.90;;;;;;;33.64;56.84;100561.03;5041000;28;66259;-32
2022/05/17 08:11:12;;;;;;;3.90;3.60;;;;;;;33.66;56.62;100560.78;5038998;28;70203;-32
2022/05/17 08:13:43;;;;;;;5.45;3.92;;;;;;;33.66;56.65;100556.16;5057664;28;66881;-32
2022/05/17 08:16:34;;;;;;;4.43;4.10;;;;;;;33.68;56.75;100558.63;5059218;28;69884;-32
2022/05/17 08:19:05;;;;;;;4.60;4.30;;;;;;;33.66;56.67;100561.59;5027989;28;67369;-32
2022/05/17 08:21:37;;;;;;;4.55;3.75;;;;;;;33.64;56.79;100563.75;5059153;28;70010;-32
2022/05/17 08:24:08;;;;;;;4.57;4.18;;;;;;;33.70;56.58;100573.63;5040871;28;65242;-33
2022/05/17 08:29:28;;;;;;;3.83;3.53;;;;;;;33.71;56.63;100580.75;5040791;28;66246;-32
2022/05/17 08:34:47;;;;;;;4.00;3.70;;;;;;;33.72;56.43;100576.13;5040594;28;65746;-32
2022/05/17 08:37:18;;;;;;;4.28;3.95;;;;;;;33.73;56.59;100578.56;5041501;28;70281;-32
2022/05/17 08:39:48;;;;;;;4.05;3.75;;;;;;;33.74;56.54;100596.56;5040724;28;66865;-33
2022/05/17 08:42:31;;;;;;;4.20;3.72;;;;;;;33.74;56.32;100607.44;5040117;28;70174;-32
2022/05/17 08:45:09;;;;;;;3.90;3.65;;;;;;;33.55;56.53;100576.09;5041218;28;66203;-33
2022/05/17 08:47:52;;;;;;;4.18;3.78;;;;;;;33.22;56.50;100528.75;5055760;28;69473;-33
2022/05/17 08:50:34;;;;;;;4.22;3.83;;;;;;;33.76;56.36;100605.28;5051516;28;66286;-31
2022/05/17 08:53:10;;;;;;;4.30;3.55;;;;;;;33.75;56.54;100592.75;5039704;28;69578;-32
2022/05/17 08:55:41;;;;;;;3.97;3.63;;;;;;;33.74;56.54;100585.69;5043308;28;66395;-32
2022/05/17 08:58:16;;;;;;;4.10;3.80;;;;;;;33.56;56.68;100545.13;5048603;28;70599;-32
2022/05/17 09:00:52;;;;;;;3.85;3.55;;;;;;;33.75;56.45;100560.13;5060756;28;67134;-32
2022/05/17 09:03:52;;;;;;;5.93;3.60;;;;;;;33.72;56.58;100563.34;5060155;28;70340;-32
2022/05/17 09:06:51;;;;;;;3.95;3.65;;;;;;;33.66;56.83;100567.06;5036339;28;66097;-32
2022/05/17 09:09:31;;;;;;;6.45;3.67;;;;;;;33.43;56.70;100515.50;5053682;28;69973;-32
2022/05/17 09:12:14;;;;;;;4.15;3.75;;;;;;;33.34;56.61;100499.59;5060233;28;66055;-32
2022/05/17 09:14:48;;;;;;;4.35;3.95;;;;;;;33.75;56.74;100576.44;5059537;28;70290;-31
2022/05/17 09:17:22;;;;;;;4.07;3.78;;;;;;;33.33;56.69;100505.28;5059250;28;66211;-32
2022/05/17 09:19:54;;;;;;;4.22;3.25;;;;;;;33.79;56.58;100577.59;5039988;28;70353;-32
2022/05/17 09:22:25;;;;;;;4.25;3.83;;;;;;;33.66;56.56;100558.06;5052819;28;65639;-32
2022/05/17 09:24:59;;;;;;;3.90;3.67;;;;;;;33.29;56.83;100513.13;5052404;28;71344;-33
2022/05/17 09:27:36;;;;;;;4.18;3.78;;;;;;;33.78;56.87;100596.88;5038235;28;66714;-32
2022/05/17 09:30:24;;;;;;;3.92;3.63;;;;;;;33.76;56.70;100588.97;5041128;28;70003;-33
2022/05/17 09:33:03;;;;;;;5.93;4.07;;;;;;;33.65;56.84;100584.41;5039932;28;66189;-32
2022/05/17 09:35:43;;;;;;;3.97;3.65;;;;;;;33.29;57.42;100534.00;5040397;28;69964;-32
2022/05/17 09:38:14;;;;;;;4.20;3.80;;;;;;;33.76;57.37;100639.81;5039002;28;66389;-32
2022/05/17 09:40:50;;;;;;;4.32;3.92;;;;;;;33.74;57.20;100629.22;5040248;28;70404;-32
2022/05/17 09:43:49;;;;;;;4.15;3.85;;;;;;;33.60;57.69;100638.75;5038698;28;65242;-33
2022/05/17 09:46:35;;;;;;;6.72;4.55;;;;;;;33.67;57.18;100639.41;5040608;28;70105;-33
2022/05/17 09:52:32;;;;;;;5.38;4.32;;;;;;;33.65;57.46;100644.25;5042494;28;70502;-33
2022/05/17 09:55:20;;;;;;;7.70;4.35;;;;;;;33.57;57.59;100650.09;5039228;28;66477;-33
2022/05/17 09:57:59;;;;;;;4.65;4.35;;;;;;;33.14;57.59;100586.22;5054663;28;69486;-33
2022/05/17 10:00:50;;;;;;;4.95;4.55;;;;;;;33.20;57.99;100617.84;5056013;28;65961;-33
2022/05/17 10:03:34;;;;;;;5.45;4.95;;;;;;;33.56;57.69;100670.22;5059106;28;69206;-33
2022/05/17 10:06:12;;;;;;;5.22;4.30;;;;;;;33.62;58.02;100682.81;5060362;28;66844;-32
2022/05/17 10:09:03;;;;;;;4.95;4.38;;;;;;;33.51;57.99;100680.97;5040196;28;70428;-32
2022/05/17 10:12:09;;;;;;;4.70;4.30;;;;;;;33.54;57.95;100673.19;5039592;28;66142;-33
2022/05/17 10:14:47;;;;;;;5.10;4.60;;;;;;;33.08;57.79;100592.63;5050537;28;70348;-32
2022/05/17 10:17:39;;;;;;;4.88;4.40;;;;;;;33.47;57.73;100671.66;5058588;28;66465;-34
2022/05/17 10:20:31;;;;;;;4.55;4.25;;;;;;;33.19;58.04;100627.09;5046822;28;70720;-33
2022/05/17 10:23:08;;;;;;;4.57;4.17;;;;;;;33.35;58.03;100656.22;5058037;28;65593;-34
2022/05/17 10:25:49;;;;;;;4.88;4.53;;;;;;;33.49;58.02;100680.38;5046812;28;70193;-35
2022/05/17 10:28:41;;;;;;;8.00;4.47;;;;;;;33.34;59.41;100684.44;5039819;28;66089;-33
2022/05/17 10:31:28;;;;;;;12.38;7.43;;;;;;;32.79;60.07;100589.84;5040267;28;70503;-36
2022/05/17 10:34:34;;;;;;;5.78;5.28;;;;;;;33.28;60.56;100682.69;5046642;28;66644;-37
2022/05/17 10:37:12;;;;;;;5.65;5.25;;;;;;;33.34;60.54;100695.31;5051438;28;70136;-36
2022/05/17 10:39:50;;;;;;;8.38;6.10;;;;;;;33.35;60.40;100686.13;5052250;28;65338;-33
2022/05/17 10:42:21;;;;;;;7.45;6.68;;;;;;;33.06;62.68;100692.56;5046105;28;70141;-34
2022/05/17 10:44:55;;;;;;;6.97;6.30;;;;;;;32.90;63.38;100689.53;5045690;28;66070;-34
2022/05/17 10:47:39;;;;;;;7.57;6.93;;;;;;;32.86;64.18;100692.94;5042620;28;69962;-34
2022/05/17 10:50:24;;;;;;;7.57;6.85;;;;;;;32.77;64.96;100695.19;5049001;28;66239;-34
2022/05/17 10:53:21;;;;;;;8.50;7.80;;;;;;;32.64;65.38;100690.81;5045251;28;69664;-34
2022/05/17 10:56:20;;;;;;;9.43;8.43;;;;;;;32.55;66.09;100708.53;5056692;28;65617;-34
2022/05/17 10:59:35;;;;;;;10.63;7.75;;;;;;;32.61;66.24;100725.78;5052296;28;69571;-32
2022/05/17 11:02:19;;;;;;;15.40;7.70;;;;;;;32.61;66.40;100706.78;5003110;28;66514;-35
2022/05/17 11:05:02;;;;;;;11.23;8.93;;;;;;;32.59;66.94;100708.91;5050901;28;70050;-34
2022/05/17 11:07:56;;;;;;;11.05;9.88;;;;;;;32.54;67.12;100719.63;5057484;28;66682;-34
2022/05/17 11:10:57;;;;;;;13.55;11.50;;;;;;;32.61;67.37;100723.06;5054145;28;69911;-35
2022/05/17 11:13:44;;;;;;;16.63;12.07;;;;;;;32.60;67.56;100733.09;4997798;28;66079;-35
2022/05/17 11:16:27;;;;;;;16.27;12.43;;;;;;;32.61;68.00;100729.31;5046438;28;70298;-35
2022/05/17 11:19:30;;;;;;;20.10;12.95;;;;;;;32.70;67.17;100727.91;5045796;28;66515;-33
2022/05/17 11:22:11;;;;;;;13.10;11.77;;;;;;;32.93;66.10;100732.50;5049567;28;70074;-33
2022/05/17 11:24:54;;;;;;;16.83;13.05;;;;;;;32.48;66.19;100654.38;5054484;28;66632;-34
2022/05/17 11:27:40;;;;;;;16.88;13.25;;;;;;;33.11;64.90;100733.44;5051899;28;69356;-33
2022/05/17 11:30:20;;;;;;;22.90;13.98;;;;;;;33.15;65.42;100740.91;5057337;28;66487;-34
2022/05/17 11:33:28;;;;;;;16.88;13.50;;;;;;;33.13;65.92;100740.31;5046831;28;70030;-33
2022/05/17 11:36:10;;;;;;;16.25;13.77;;;;;;;32.71;65.60;100658.13;5054432;28;66037;-34
2022/05/17 11:38:45;;;;;;;25.20;14.82;;;;;;;33.15;65.78;100729.19;5055639;28;69562;-34
2022/05/17 11:41:43;;;;;;;23.75;16.02;;;;;;;32.94;66.97;100744.19;5053696;28;66492;-34
2022/05/17 11:44:20;;;;;;;19.00;16.55;;;;;;;32.11;66.89;100612.19;5056413;28;70280;-34
2022/05/17 11:46:58;;;;;;;23.17;17.73;;;;;;;32.86;67.90;100758.13;5057142;28;66524;-35
2022/05/17 11:49:41;;;;;;;19.58;16.83;;;;;;;32.85;68.40;100778.22;5054846;28;70488;-35
2022/05/17 11:52:24;;;;;;;24.70;16.95;;;;;;;32.26;68.01;100699.38;5057287;28;65589;-35
2022/05/17 11:54:55;;;;;;;21.85;15.32;;;;;;;32.66;67.70;100753.88;5057271;28;69151;-36
2022/05/17 11:57:26;;;;;;;17.75;15.40;;;;;;;32.79;67.44;100782.72;5055119;28;67366;-37
2022/05/17 12:00:04;;;;;;;22.08;16.35;;;;;;;32.33;67.06;100716.41;5056416;28;69385;-34
2022/05/17 12:02:47;;;;;;;24.05;15.85;;;;;;;32.76;67.36;100791.31;5055576;28;66446;-36
2022/05/17 12:05:43;;;;;;;22.75;16.05;;;;;;;32.76;67.33;100796.75;5058518;28;70024;-34
2022/05/17 12:08:27;;;;;;;24.02;15.45;;;;;;;32.93;66.43;100789.56;5046214;28;66430;-35
2022/05/17 12:11:13;;;;;;;15.50;14.00;;;;;;;32.91;65.78;100785.44;5039176;28;69612;-35